This is the latest recevied weather packets stored in our database for station/object 9W2CHF-3. If no packets are shown the sender has not sent any weather packets the latest 1 day(s).
| Time | Temp. | Humidity | Pressure | Rain* | Wind** | Luminosity | Snow |
|---|---|---|---|---|---|---|---|
| 1777865218 | 36.11° C | 61% | 1012.3 hPa | - | - | - | - |
| 1777864018 | 36.11° C | 64% | 1012.5 hPa | - | - | - | - |
| 1777862818 | 36.11° C | 62% | 1012.4 hPa | - | - | - | - |
| 1777861618 | 37.78° C | 54% | 1012.4 hPa | - | - | - | - |
| 1777860418 | 36.67° C | 59% | 1012.3 hPa | - | - | - | - |
| 1777859218 | 36.11° C | 63% | 1012.5 hPa | - | - | - | - |
| 1777858020 | 35° C | 66% | 1012.2 hPa | - | - | - | - |
| 1777856818 | 35° C | 68% | 1012.1 hPa | - | - | - | - |
| 1777855618 | 34.44° C | 71% | 1011.6 hPa | - | - | - | - |
| 1777854418 | 33.89° C | 73% | 1011.4 hPa | - | - | - | - |
| 1777853218 | 31.67° C | 88% | 1011.1 hPa | - | - | - | - |
| 1777852017 | 28.33° C | 100% | 1011 hPa | - | - | - | - |
| 1777850817 | 27.78° C | 100% | 1010.7 hPa | - | - | - | - |
| 1777849617 | 27.22° C | 100% | 1010.6 hPa | - | - | - | - |
| 1777848417 | 27.78° C | 100% | 1010.5 hPa | - | - | - | - |
| 1777847217 | 27.22° C | 100% | 1010.2 hPa | - | - | - | - |
| 1777846017 | 27.22° C | 100% | 1010.2 hPa | - | - | - | - |
| 1777843617 | 27.22° C | 100% | 1010.1 hPa | - | - | - | - |
| 1777842417 | 27.78° C | 100% | 1010.1 hPa | - | - | - | - |
| 1777841217 | 27.78° C | 100% | 1010 hPa | - | - | - | - |
| 1777840017 | 27.78° C | 100% | 1010.1 hPa | - | - | - | - |
* Rain since midnight (hover to see other rain measurements)
** Current wind speed in m/s (hover to see current wind gust speed)